sensor_id;sensor_type;location;lat;lon;timestamp;pressure;altitude;pressure_sealevel;temperature;humidity
45285;BME280;31026;43.780;25.948;2022-08-23T00:02:24;100140.47;;;24.21;69.19
45285;BME280;31026;43.780;25.948;2022-08-23T00:04:53;100158.16;;;24.24;69.17
45285;BME280;31026;43.780;25.948;2022-08-23T00:07:22;100155.56;;;24.31;69.06
45285;BME280;31026;43.780;25.948;2022-08-23T00:09:50;100167.03;;;24.33;68.69
45285;BME280;31026;43.780;25.948;2022-08-23T00:12:21;100158.25;;;24.31;68.62
45285;BME280;31026;43.780;25.948;2022-08-23T00:14:50;100157.59;;;24.29;68.59
45285;BME280;31026;43.780;25.948;2022-08-23T00:17:19;100160.44;;;24.35;68.67
45285;BME280;31026;43.780;25.948;2022-08-23T00:19:48;100162.19;;;24.28;68.88
45285;BME280;31026;43.780;25.948;2022-08-23T00:22:16;100172.44;;;24.18;69.07
45285;BME280;31026;43.780;25.948;2022-08-23T00:24:45;100165.72;;;24.14;69.21
45285;BME280;31026;43.780;25.948;2022-08-23T00:27:14;100174.22;;;24.26;68.68
45285;BME280;31026;43.780;25.948;2022-08-23T00:29:46;100170.84;;;24.24;68.42
45285;BME280;31026;43.780;25.948;2022-08-23T00:32:16;100164.13;;;24.19;68.90
45285;BME280;31026;43.780;25.948;2022-08-23T00:34:45;100171.69;;;24.24;68.42
45285;BME280;31026;43.780;25.948;2022-08-23T00:37:14;100158.81;;;24.26;68.60
45285;BME280;31026;43.780;25.948;2022-08-23T00:39:43;100161.34;;;24.28;68.66
45285;BME280;31026;43.780;25.948;2022-08-23T00:42:14;100150.16;;;24.31;68.36
45285;BME280;31026;43.780;25.948;2022-08-23T00:44:58;100153.38;;;24.11;68.74
45285;BME280;31026;43.780;25.948;2022-08-23T00:47:40;100154.25;;;24.27;68.36
45285;BME280;31026;43.780;25.948;2022-08-23T00:50:12;100162.84;;;24.15;68.66
45285;BME280;31026;43.780;25.948;2022-08-23T00:52:43;100141.13;;;24.24;68.45
45285;BME280;31026;43.780;25.948;2022-08-23T00:55:13;100152.59;;;24.26;68.00
45285;BME280;31026;43.780;25.948;2022-08-23T00:57:43;100164.13;;;24.34;68.09
45285;BME280;31026;43.780;25.948;2022-08-23T01:00:15;100158.25;;;24.31;68.25
45285;BME280;31026;43.780;25.948;2022-08-23T01:02:44;100160.59;;;24.34;68.07
45285;BME280;31026;43.780;25.948;2022-08-23T01:05:13;100158.25;;;24.31;67.98
45285;BME280;31026;43.780;25.948;2022-08-23T01:07:44;100159.19;;;24.23;68.09
45285;BME280;31026;43.780;25.948;2022-08-23T01:10:16;100148.94;;;24.18;68.26
45285;BME280;31026;43.780;25.948;2022-08-23T01:12:47;100156.69;;;24.21;67.97
45285;BME280;31026;43.780;25.948;2022-08-23T01:15:21;100155.94;;;24.28;67.94
45285;BME280;31026;43.780;25.948;2022-08-23T01:17:53;100143.91;;;24.30;67.94
45285;BME280;31026;43.780;25.948;2022-08-23T01:20:23;100162.47;;;24.33;67.98
45285;BME280;31026;43.780;25.948;2022-08-23T01:22:54;100160.03;;;24.24;68.20
45285;BME280;31026;43.780;25.948;2022-08-23T01:25:29;100153.06;;;24.29;67.69
45285;BME280;31026;43.780;25.948;2022-08-23T01:27:58;100160.97;;;24.31;68.16
45285;BME280;31026;43.780;25.948;2022-08-23T01:30:29;100160.03;;;24.24;68.11
45285;BME280;31026;43.780;25.948;2022-08-23T01:32:58;100159.00;;;24.25;67.99
45285;BME280;31026;43.780;25.948;2022-08-23T01:35:33;100162.84;;;24.30;68.16
45285;BME280;31026;43.780;25.948;2022-08-23T01:38:02;100152.22;;;24.29;68.02
45285;BME280;31026;43.780;25.948;2022-08-23T01:40:34;100167.03;;;24.18;68.25
45285;BME280;31026;43.780;25.948;2022-08-23T01:43:02;100173.63;;;24.15;68.25
45285;BME280;31026;43.780;25.948;2022-08-23T01:45:31;100154.00;;;24.21;68.14
45285;BME280;31026;43.780;25.948;2022-08-23T01:48:00;100163.09;;;24.20;67.85
45285;BME280;31026;43.780;25.948;2022-08-23T01:50:29;100164.41;;;24.10;68.44
45285;BME280;31026;43.780;25.948;2022-08-23T01:52:58;100165.25;;;24.10;67.99
45285;BME280;31026;43.780;25.948;2022-08-23T01:55:26;100158.88;;;24.03;68.37
45285;BME280;31026;43.780;25.948;2022-08-23T01:57:58;100155.44;;;24.09;67.97
45285;BME280;31026;43.780;25.948;2022-08-23T02:00:29;100174.84;;;24.28;67.81
45285;BME280;31026;43.780;25.948;2022-08-23T02:02:58;100154.56;;;24.32;67.65
45285;BME280;31026;43.780;25.948;2022-08-23T02:05:27;100155.09;;;24.27;67.65
45285;BME280;31026;43.780;25.948;2022-08-23T02:07:55;100153.25;;;24.28;67.52
45285;BME280;31026;43.780;25.948;2022-08-23T02:10:44;100152.94;;;24.22;67.67
45285;BME280;31026;43.780;25.948;2022-08-23T02:13:15;100182.31;;;24.26;67.96
45285;BME280;31026;43.780;25.948;2022-08-23T02:15:44;100158.16;;;24.24;67.31
45285;BME280;31026;43.780;25.948;2022-08-23T02:18:15;100178.31;;;24.21;67.74
45285;BME280;31026;43.780;25.948;2022-08-23T02:20:44;100183.31;;;24.25;67.43
45285;BME280;31026;43.780;25.948;2022-08-23T02:23:13;100197.38;;;24.20;67.62
45285;BME280;31026;43.780;25.948;2022-08-23T02:25:41;100188.50;;;24.11;67.83
45285;BME280;31026;43.780;25.948;2022-08-23T02:28:09;100207.63;;;24.25;67.49
45285;BME280;31026;43.780;25.948;2022-08-23T02:30:40;100191.91;;;24.13;67.59
45285;BME280;31026;43.780;25.948;2022-08-23T02:33:11;100211.16;;;24.10;67.23
45285;BME280;31026;43.780;25.948;2022-08-23T02:35:40;100209.38;;;24.02;67.84
45285;BME280;31026;43.780;25.948;2022-08-23T02:38:09;100212.97;;;23.95;67.70
45285;BME280;31026;43.780;25.948;2022-08-23T02:40:38;100225.75;;;24.01;67.85
45285;BME280;31026;43.780;25.948;2022-08-23T02:43:07;100224.22;;;24.21;68.02
45285;BME280;31026;43.780;25.948;2022-08-23T02:45:36;100218.38;;;24.33;67.74
45285;BME280;31026;43.780;25.948;2022-08-23T02:48:07;100214.44;;;24.20;68.17
45285;BME280;31026;43.780;25.948;2022-08-23T02:50:36;100223.44;;;24.13;68.41
45285;BME280;31026;43.780;25.948;2022-08-23T02:53:04;100228.31;;;24.17;68.76
45285;BME280;31026;43.780;25.948;2022-08-23T02:55:32;100221.53;;;24.21;68.40
45285;BME280;31026;43.780;25.948;2022-08-23T02:58:01;100227.94;;;24.20;68.30
45285;BME280;31026;43.780;25.948;2022-08-23T03:00:29;100228.97;;;24.19;68.35
45285;BME280;31026;43.780;25.948;2022-08-23T03:02:58;100226.72;;;24.08;68.22
45285;BME280;31026;43.780;25.948;2022-08-23T03:05:29;100245.03;;;23.98;68.64
45285;BME280;31026;43.780;25.948;2022-08-23T03:07:58;100230.13;;;24.02;68.21
45285;BME280;31026;43.780;25.948;2022-08-23T03:10:26;100226.72;;;24.08;68.05
45285;BME280;31026;43.780;25.948;2022-08-23T03:12:55;100243.34;;;23.97;68.23
45285;BME280;31026;43.780;25.948;2022-08-23T03:15:24;100237.06;;;23.81;68.59
45285;BME280;31026;43.780;25.948;2022-08-23T03:17:52;100237.06;;;23.81;68.59
45285;BME280;31026;43.780;25.948;2022-08-23T03:20:20;100240.09;;;24.01;67.98
45285;BME280;31026;43.780;25.948;2022-08-23T03:22:51;100235.78;;;24.15;67.71
45285;BME280;31026;43.780;25.948;2022-08-23T03:25:20;100242.19;;;24.14;67.53
45285;BME280;31026;43.780;25.948;2022-08-23T03:27:49;100238.25;;;24.02;67.97
45285;BME280;31026;43.780;25.948;2022-08-23T03:30:17;100241.78;;;24.02;67.93
45285;BME280;31026;43.780;25.948;2022-08-23T03:32:46;100247.00;;;24.04;68.24
45285;BME280;31026;43.780;25.948;2022-08-23T03:35:14;100242.44;;;24.05;67.68
45285;BME280;31026;43.780;25.948;2022-08-23T03:37:43;100258.88;;;23.95;67.79
45285;BME280;31026;43.780;25.948;2022-08-23T03:40:14;100262.03;;;23.84;68.13
45285;BME280;31026;43.780;25.948;2022-08-23T03:42:42;100254.94;;;23.82;68.08
45285;BME280;31026;43.780;25.948;2022-08-23T03:45:11;100254.56;;;24.09;67.71
45285;BME280;31026;43.780;25.948;2022-08-23T03:47:39;100264.94;;;24.20;67.11
45285;BME280;31026;43.780;25.948;2022-08-23T03:50:09;100263.38;;;24.26;67.17
45285;BME280;31026;43.780;25.948;2022-08-23T03:52:37;100247.50;;;24.22;67.11
45285;BME280;31026;43.780;25.948;2022-08-23T03:55:06;100262.41;;;24.18;67.04
45285;BME280;31026;43.780;25.948;2022-08-23T03:57:37;100251.03;;;24.08;67.43
45285;BME280;31026;43.780;25.948;2022-08-23T04:00:07;100264.88;;;24.05;67.49
45285;BME280;31026;43.780;25.948;2022-08-23T04:02:36;100278.88;;;24.09;67.42
45285;BME280;31026;43.780;25.948;2022-08-23T04:05:05;100262.81;;;24.07;67.29
45285;BME280;31026;43.780;25.948;2022-08-23T04:07:35;100271.00;;;23.99;67.60
45285;BME280;31026;43.780;25.948;2022-08-23T04:10:04;100268.31;;;23.99;67.20
45285;BME280;31026;43.780;25.948;2022-08-23T04:12:33;100279.41;;;24.04;67.13
45285;BME280;31026;43.780;25.948;2022-08-23T04:15:05;100270.75;;;24.09;67.26
45285;BME280;31026;43.780;25.948;2022-08-23T04:17:33;100272.22;;;24.19;66.80
45285;BME280;31026;43.780;25.948;2022-08-23T04:20:02;100276.56;;;24.44;66.32
45285;BME280;31026;43.780;25.948;2022-08-23T04:22:30;100278.75;;;24.78;64.99
45285;BME280;31026;43.780;25.948;2022-08-23T04:24:59;100284.06;;;25.16;64.22
45285;BME280;31026;43.780;25.948;2022-08-23T04:27:27;100279.13;;;25.34;63.85
45285;BME280;31026;43.780;25.948;2022-08-23T04:29:56;100261.59;;;25.30;63.69
45285;BME280;31026;43.780;25.948;2022-08-23T04:32:27;100268.41;;;25.26;63.73
45285;BME280;31026;43.780;25.948;2022-08-23T04:34:58;100263.38;;;24.64;65.49
45285;BME280;31026;43.780;25.948;2022-08-23T04:37:26;100286.69;;;24.41;66.77
45285;BME280;31026;43.780;25.948;2022-08-23T04:39:55;100275.09;;;24.33;66.85
45285;BME280;31026;43.780;25.948;2022-08-23T04:42:36;100271.41;;;24.34;66.81
45285;BME280;31026;43.780;25.948;2022-08-23T04:45:05;100283.34;;;24.39;66.90
45285;BME280;31026;43.780;25.948;2022-08-23T04:47:36;100280.91;;;24.45;66.41
45285;BME280;31026;43.780;25.948;2022-08-23T04:50:08;100275.19;;;24.25;67.27
45285;BME280;31026;43.780;25.948;2022-08-23T04:52:37;100274.00;;;24.04;68.18
45285;BME280;31026;43.780;25.948;2022-08-23T04:55:06;100272.78;;;24.30;67.33
45285;BME280;31026;43.780;25.948;2022-08-23T04:57:34;100267.56;;;24.43;66.92
45285;BME280;31026;43.780;25.948;2022-08-23T05:00:03;100270.94;;;24.45;67.18
45285;BME280;31026;43.780;25.948;2022-08-23T05:02:31;100271.09;;;24.52;66.97
45285;BME280;31026;43.780;25.948;2022-08-23T05:05:03;100266.81;;;24.57;66.63
45285;BME280;31026;43.780;25.948;2022-08-23T05:07:31;100284.25;;;24.70;66.44
45285;BME280;31026;43.780;25.948;2022-08-23T05:10:00;100271.91;;;24.52;66.50
45285;BME280;31026;43.780;25.948;2022-08-23T05:12:28;100278.38;;;24.66;66.28
45285;BME280;31026;43.780;25.948;2022-08-23T05:14:56;100274.38;;;24.77;66.01
45285;BME280;31026;43.780;25.948;2022-08-23T05:17:25;100275.75;;;23.97;66.07
45285;BME280;31026;43.780;25.948;2022-08-23T05:19:53;100277.56;;;23.11;66.00
45285;BME280;31026;43.780;25.948;2022-08-23T05:22:24;100286.38;;;22.80;65.48
45285;BME280;31026;43.780;25.948;2022-08-23T05:24:53;100287.41;;;22.71;65.41
45285;BME280;31026;43.780;25.948;2022-08-23T05:27:21;100288.75;;;22.75;65.19
45285;BME280;31026;43.780;25.948;2022-08-23T05:29:49;100284.50;;;22.89;65.98
45285;BME280;31026;43.780;25.948;2022-08-23T05:32:18;100283.66;;;23.05;66.03
45285;BME280;31026;43.780;25.948;2022-08-23T05:34:47;100292.75;;;23.03;66.70
45285;BME280;31026;43.780;25.948;2022-08-23T05:37:15;100290.38;;;23.09;67.19
45285;BME280;31026;43.780;25.948;2022-08-23T05:39:46;100288.69;;;23.08;67.58
45285;BME280;31026;43.780;25.948;2022-08-23T05:42:15;100290.34;;;23.17;67.88
45285;BME280;31026;43.780;25.948;2022-08-23T05:44:43;100289.88;;;23.05;68.11
45285;BME280;31026;43.780;25.948;2022-08-23T05:47:13;100296.47;;;23.02;68.59
45285;BME280;31026;43.780;25.948;2022-08-23T05:49:43;100279.41;;;23.10;68.43
45285;BME280;31026;43.780;25.948;2022-08-23T05:52:12;100288.69;;;23.16;68.90
45285;BME280;31026;43.780;25.948;2022-08-23T05:54:40;100295.03;;;23.23;68.91
45285;BME280;31026;43.780;25.948;2022-08-23T05:57:11;100296.91;;;23.22;69.28
45285;BME280;31026;43.780;25.948;2022-08-23T05:59:40;100301.09;;;23.25;69.21
45285;BME280;31026;43.780;25.948;2022-08-23T06:02:08;100291.91;;;23.03;67.79
45285;BME280;31026;43.780;25.948;2022-08-23T06:04:38;100298.50;;;22.92;67.33
45285;BME280;31026;43.780;25.948;2022-08-23T06:07:07;100303.91;;;22.68;67.25
45285;BME280;31026;43.780;25.948;2022-08-23T06:09:36;100304.25;;;22.73;66.35
45285;BME280;31026;43.780;25.948;2022-08-23T06:12:04;100286.06;;;22.67;66.25
45285;BME280;31026;43.780;25.948;2022-08-23T06:14:36;100286.94;;;22.51;65.93
45285;BME280;31026;43.780;25.948;2022-08-23T06:17:05;100301.75;;;22.63;65.36
45285;BME280;31026;43.780;25.948;2022-08-23T06:19:33;100315.22;;;22.55;65.01
45285;BME280;31026;43.780;25.948;2022-08-23T06:22:02;100287.28;;;22.48;64.75
45285;BME280;31026;43.780;25.948;2022-08-23T06:24:30;100307.66;;;22.50;64.91
45285;BME280;31026;43.780;25.948;2022-08-23T06:26:58;100294.34;;;22.49;64.40
45285;BME280;31026;43.780;25.948;2022-08-23T06:29:27;100295.50;;;22.46;64.38
45285;BME280;31026;43.780;25.948;2022-08-23T06:31:58;100302.59;;;22.47;64.48
45285;BME280;31026;43.780;25.948;2022-08-23T06:34:27;100298.88;;;22.40;64.26
45285;BME280;31026;43.780;25.948;2022-08-23T06:36:58;100303.63;;;22.54;63.80
45285;BME280;31026;43.780;25.948;2022-08-23T06:39:28;100307.16;;;22.47;64.07
45285;BME280;31026;43.780;25.948;2022-08-23T06:41:57;100313.03;;;22.34;63.84
45285;BME280;31026;43.780;25.948;2022-08-23T06:44:27;100308.66;;;22.41;63.54
45285;BME280;31026;43.780;25.948;2022-08-23T06:46:59;100328.19;;;22.43;63.72
45285;BME280;31026;43.780;25.948;2022-08-23T06:49:27;100302.44;;;22.40;63.41
45285;BME280;31026;43.780;25.948;2022-08-23T06:51:56;100314.38;;;22.38;63.35
45285;BME280;31026;43.780;25.948;2022-08-23T06:54:26;100331.22;;;22.32;63.50
45285;BME280;31026;43.780;25.948;2022-08-23T06:56:55;100326.69;;;22.32;63.14
45285;BME280;31026;43.780;25.948;2022-08-23T06:59:24;100326.50;;;22.34;63.17
45285;BME280;31026;43.780;25.948;2022-08-23T07:01:53;100330.56;;;22.38;63.22
45285;BME280;31026;43.780;25.948;2022-08-23T07:04:26;100338.81;;;22.36;62.92
45285;BME280;31026;43.780;25.948;2022-08-23T07:09:23;100328.53;;;22.56;62.98
45285;BME280;31026;43.780;25.948;2022-08-23T07:11:51;100319.69;;;22.95;63.29
45285;BME280;31026;43.780;25.948;2022-08-23T07:14:20;100327.09;;;23.10;65.10
45285;BME280;31026;43.780;25.948;2022-08-23T07:16:50;100321.22;;;23.14;65.53
45285;BME280;31026;43.780;25.948;2022-08-23T07:19:20;100333.50;;;23.17;65.85
45285;BME280;31026;43.780;25.948;2022-08-23T07:21:51;100325.44;;;23.09;65.75
45285;BME280;31026;43.780;25.948;2022-08-23T07:24:19;100312.94;;;23.16;65.50
45285;BME280;31026;43.780;25.948;2022-08-23T07:26:49;100313.63;;;23.10;65.96
45285;BME280;31026;43.780;25.948;2022-08-23T07:29:19;100318.34;;;23.16;65.87
45285;BME280;31026;43.780;25.948;2022-08-23T07:31:48;100318.00;;;23.11;65.93
45285;BME280;31026;43.780;25.948;2022-08-23T07:34:17;100319.69;;;23.12;65.77
45285;BME280;31026;43.780;25.948;2022-08-23T07:36:46;100311.75;;;23.18;65.98
45285;BME280;31026;43.780;25.948;2022-08-23T07:39:18;100308.03;;;23.19;65.71
45285;BME280;31026;43.780;25.948;2022-08-23T07:41:47;100309.66;;;23.37;65.51
45285;BME280;31026;43.780;25.948;2022-08-23T07:44:16;100318.97;;;23.26;65.71
45285;BME280;31026;43.780;25.948;2022-08-23T07:46:45;100291.66;;;23.21;66.05
45285;BME280;31026;43.780;25.948;2022-08-23T07:49:14;100317.59;;;23.30;65.85
45285;BME280;31026;43.780;25.948;2022-08-23T07:51:45;100326.03;;;23.27;65.73
45285;BME280;31026;43.780;25.948;2022-08-23T07:54:14;100315.53;;;23.40;65.34
45285;BME280;31026;43.780;25.948;2022-08-23T07:56:46;100326.13;;;23.50;64.96
45285;BME280;31026;43.780;25.948;2022-08-23T07:59:14;100317.78;;;23.29;65.60
45285;BME280;31026;43.780;25.948;2022-08-23T08:01:42;100329.31;;;23.46;65.28
45285;BME280;31026;43.780;25.948;2022-08-23T08:04:11;100338.78;;;23.41;65.15
45285;BME280;31026;43.780;25.948;2022-08-23T08:06:40;100322.97;;;23.38;65.73
45285;BME280;31026;43.780;25.948;2022-08-23T08:09:10;100334.75;;;23.37;65.76
45285;BME280;31026;43.780;25.948;2022-08-23T08:11:39;100324.38;;;23.26;65.79
45285;BME280;31026;43.780;25.948;2022-08-23T08:14:11;100325.03;;;23.28;65.85
45285;BME280;31026;43.780;25.948;2022-08-23T08:16:41;100327.41;;;23.23;66.12
45285;BME280;31026;43.780;25.948;2022-08-23T08:19:10;100319.94;;;23.33;65.86
45285;BME280;31026;43.780;25.948;2022-08-23T08:21:39;100318.91;;;23.42;66.01
45285;BME280;31026;43.780;25.948;2022-08-23T08:24:10;100320.13;;;23.63;65.33
45285;BME280;31026;43.780;25.948;2022-08-23T08:26:40;100305.31;;;23.59;65.15
45285;BME280;31026;43.780;25.948;2022-08-23T08:29:11;100318.97;;;23.66;65.44
45285;BME280;31026;43.780;25.948;2022-08-23T08:31:41;100320.75;;;23.73;65.53
45285;BME280;31026;43.780;25.948;2022-08-23T08:34:11;100325.53;;;23.63;65.89
45285;BME280;31026;43.780;25.948;2022-08-23T08:36:39;100313.59;;;23.57;66.04
45285;BME280;31026;43.780;25.948;2022-08-23T08:39:09;100340.03;;;23.70;66.08
45285;BME280;31026;43.780;25.948;2022-08-23T08:41:42;100292.16;;;23.64;65.85
45285;BME280;31026;43.780;25.948;2022-08-23T08:44:17;100305.97;;;23.61;66.62
45285;BME280;31026;43.780;25.948;2022-08-23T08:46:50;100303.22;;;23.69;66.80
45285;BME280;31026;43.780;25.948;2022-08-23T08:49:23;100296.75;;;23.87;66.83
45285;BME280;31026;43.780;25.948;2022-08-23T08:51:58;100311.63;;;23.82;66.58
45285;BME280;31026;43.780;25.948;2022-08-23T08:54:29;100315.00;;;23.76;67.00
45285;BME280;31026;43.780;25.948;2022-08-23T08:56:59;100318.00;;;23.90;66.32
45285;BME280;31026;43.780;25.948;2022-08-23T08:59:41;100337.25;;;23.87;66.13
45285;BME280;31026;43.780;25.948;2022-08-23T09:02:11;100318.97;;;23.66;66.45
45285;BME280;31026;43.780;25.948;2022-08-23T09:04:43;100319.53;;;23.53;66.53
45285;BME280;31026;43.780;25.948;2022-08-23T09:07:12;100320.84;;;23.57;66.25
45285;BME280;31026;43.780;25.948;2022-08-23T09:09:47;100311.44;;;23.53;65.77
45285;BME280;31026;43.780;25.948;2022-08-23T09:12:23;100316.19;;;23.42;65.98
45285;BME280;31026;43.780;25.948;2022-08-23T09:15:01;100326.50;;;23.39;65.82
45285;BME280;31026;43.780;25.948;2022-08-23T09:17:34;100322.63;;;23.33;65.65
45285;BME280;31026;43.780;25.948;2022-08-23T09:20:08;100322.59;;;23.41;65.05
45285;BME280;31026;43.780;25.948;2022-08-23T09:22:38;100322.59;;;23.41;65.16
45285;BME280;31026;43.780;25.948;2022-08-23T09:25:07;100298.97;;;23.43;64.96
45285;BME280;31026;43.780;25.948;2022-08-23T09:27:36;100308.84;;;23.59;65.02
45285;BME280;31026;43.780;25.948;2022-08-23T09:30:09;100298.03;;;23.68;65.23
45285;BME280;31026;43.780;25.948;2022-08-23T09:32:38;100302.94;;;23.64;65.12
45285;BME280;31026;43.780;25.948;2022-08-23T09:35:12;100318.69;;;23.52;65.71
45285;BME280;31026;43.780;25.948;2022-08-23T09:37:46;100292.25;;;23.39;65.81
45285;BME280;31026;43.780;25.948;2022-08-23T09:40:16;100290.09;;;23.35;65.55
45285;BME280;31026;43.780;25.948;2022-08-23T09:43:00;100291.22;;;23.49;65.51
45285;BME280;31026;43.780;25.948;2022-08-23T09:45:33;100288.44;;;23.34;65.87
45285;BME280;31026;43.780;25.948;2022-08-23T09:48:02;100280.50;;;23.32;65.47
45285;BME280;31026;43.780;25.948;2022-08-23T09:50:31;100285.81;;;23.49;65.64
45285;BME280;31026;43.780;25.948;2022-08-23T09:53:04;100272.38;;;23.40;65.87
45285;BME280;31026;43.780;25.948;2022-08-23T09:55:34;100283.09;;;23.49;65.21
45285;BME280;31026;43.780;25.948;2022-08-23T09:58:03;100263.38;;;23.48;65.79
45285;BME280;31026;43.780;25.948;2022-08-23T10:00:36;100275.09;;;23.32;65.85
45285;BME280;31026;43.780;25.948;2022-08-23T10:03:21;100282.66;;;23.37;65.92
45285;BME280;31026;43.780;25.948;2022-08-23T10:05:50;100265.59;;;23.45;65.64
45285;BME280;31026;43.780;25.948;2022-08-23T10:08:23;100258.38;;;23.37;65.50
45285;BME280;31026;43.780;25.948;2022-08-23T10:10:53;100269.97;;;23.46;65.60
45285;BME280;31026;43.780;25.948;2022-08-23T10:13:24;100275.44;;;23.29;66.29
45285;BME280;31026;43.780;25.948;2022-08-23T10:15:58;100265.31;;;23.31;65.89
45285;BME280;31026;43.780;25.948;2022-08-23T10:18:32;100271.56;;;23.32;65.92
45285;BME280;31026;43.780;25.948;2022-08-23T10:21:04;100261.19;;;23.43;65.64
45285;BME280;31026;43.780;25.948;2022-08-23T10:23:37;100267.94;;;23.48;65.44
45285;BME280;31026;43.780;25.948;2022-08-23T10:26:09;100267.59;;;23.51;65.39
45285;BME280;31026;43.780;25.948;2022-08-23T10:28:45;100273.78;;;23.28;65.62
45285;BME280;31026;43.780;25.948;2022-08-23T10:31:33;100274.69;;;23.43;65.36
45285;BME280;31026;43.780;25.948;2022-08-23T10:34:10;100264.22;;;23.49;65.30
45285;BME280;31026;43.780;25.948;2022-08-23T10:36:45;100265.91;;;23.50;64.88
45285;BME280;31026;43.780;25.948;2022-08-23T10:39:18;100277.66;;;23.57;65.05
45285;BME280;31026;43.780;25.948;2022-08-23T10:41:51;100257.00;;;23.41;65.63
45285;BME280;31026;43.780;25.948;2022-08-23T10:44:26;100275.41;;;23.37;65.42
45285;BME280;31026;43.780;25.948;2022-08-23T10:47:06;100279.44;;;23.41;65.55
45285;BME280;31026;43.780;25.948;2022-08-23T10:49:39;100282.53;;;23.30;65.54
45285;BME280;31026;43.780;25.948;2022-08-23T10:52:08;100269.75;;;23.24;65.54
45285;BME280;31026;43.780;25.948;2022-08-23T10:54:39;100281.16;;;23.34;65.52
45285;BME280;31026;43.780;25.948;2022-08-23T10:57:25;100281.75;;;23.13;65.81
45285;BME280;31026;43.780;25.948;2022-08-23T10:59:55;100275.44;;;23.29;65.50
45285;BME280;31026;43.780;25.948;2022-08-23T11:02:28;100285.53;;;23.35;65.66
45285;BME280;31026;43.780;25.948;2022-08-23T11:05:00;100287.31;;;23.20;65.49
45285;BME280;31026;43.780;25.948;2022-08-23T11:07:30;100288.94;;;23.29;65.25
45285;BME280;31026;43.780;25.948;2022-08-23T11:10:08;100285.59;;;23.19;65.73
45285;BME280;31026;43.780;25.948;2022-08-23T11:12:48;100279.22;;;23.20;65.43
45285;BME280;31026;43.780;25.948;2022-08-23T11:15:20;100293.16;;;23.32;65.03
45285;BME280;31026;43.780;25.948;2022-08-23T11:17:56;100290.31;;;23.25;65.54
45285;BME280;31026;43.780;25.948;2022-08-23T11:23:12;100276.78;;;23.33;66.62
45285;BME280;31026;43.780;25.948;2022-08-23T11:25:41;100271.00;;;23.45;67.06
45285;BME280;31026;43.780;25.948;2022-08-23T11:31:15;100265.25;;;23.48;68.06
45285;BME280;31026;43.780;25.948;2022-08-23T11:33:49;100267.53;;;23.59;68.71
45285;BME280;31026;43.780;25.948;2022-08-23T11:36:19;100256.06;;;23.57;69.11
45285;BME280;31026;43.780;25.948;2022-08-23T11:39:06;100254.75;;;23.53;69.40
45285;BME280;31026;43.780;25.948;2022-08-23T11:41:35;100265.66;;;23.59;69.95
45285;BME280;31026;43.780;25.948;2022-08-23T11:44:24;100254.03;;;23.28;69.97
45285;BME280;31026;43.780;25.948;2022-08-23T11:46:57;100260.00;;;23.15;70.01
45285;BME280;31026;43.780;25.948;2022-08-23T11:52:29;100253.50;;;22.93;69.48
45285;BME280;31026;43.780;25.948;2022-08-23T11:57:50;100263.28;;;22.86;69.27
45285;BME280;31026;43.780;25.948;2022-08-23T12:00:23;100256.03;;;22.86;69.30
45285;BME280;31026;43.780;25.948;2022-08-23T12:02:54;100265.78;;;22.95;69.15
45285;BME280;31026;43.780;25.948;2022-08-23T12:05:28;100232.78;;;22.85;69.03
45285;BME280;31026;43.780;25.948;2022-08-23T12:11:06;100230.59;;;22.89;68.90
45285;BME280;31026;43.780;25.948;2022-08-23T12:16:26;100226.38;;;22.86;68.74
45285;BME280;31026;43.780;25.948;2022-08-23T12:18:56;100235.34;;;22.78;68.83
45285;BME280;31026;43.780;25.948;2022-08-23T12:21:30;100220.34;;;22.76;68.93
45285;BME280;31026;43.780;25.948;2022-08-23T12:24:01;100214.94;;;22.84;68.43
45285;BME280;31026;43.780;25.948;2022-08-23T12:26:33;100204.53;;;22.73;68.74
45285;BME280;31026;43.780;25.948;2022-08-23T12:29:08;100206.84;;;22.76;68.71
45285;BME280;31026;43.780;25.948;2022-08-23T12:31:40;100203.16;;;22.77;68.55
45285;BME280;31026;43.780;25.948;2022-08-23T12:34:16;100195.41;;;22.74;68.52
45285;BME280;31026;43.780;25.948;2022-08-23T12:36:51;100210.69;;;22.90;67.97
45285;BME280;31026;43.780;25.948;2022-08-23T12:39:25;100213.38;;;22.98;67.84
45285;BME280;31026;43.780;25.948;2022-08-23T12:42:00;100207.53;;;22.86;68.00
45285;BME280;31026;43.780;25.948;2022-08-23T12:44:30;100198.53;;;22.94;67.97
45285;BME280;31026;43.780;25.948;2022-08-23T12:47:08;100196.25;;;23.22;67.00
45285;BME280;31026;43.780;25.948;2022-08-23T12:49:37;100196.44;;;23.20;67.20
45285;BME280;31026;43.780;25.948;2022-08-23T12:52:06;100201.53;;;23.07;67.77
45285;BME280;31026;43.780;25.948;2022-08-23T12:54:35;100190.59;;;23.00;67.53
45285;BME280;31026;43.780;25.948;2022-08-23T12:57:08;100197.47;;;23.11;67.55
45285;BME280;31026;43.780;25.948;2022-08-23T12:59:41;100198.47;;;23.18;67.48
45285;BME280;31026;43.780;25.948;2022-08-23T13:02:14;100190.88;;;23.14;67.41
45285;BME280;31026;43.780;25.948;2022-08-23T13:04:44;100190.75;;;23.07;67.65
45285;BME280;31026;43.780;25.948;2022-08-23T13:07:14;100192.53;;;23.23;67.81
45285;BME280;31026;43.780;25.948;2022-08-23T13:09:45;100209.88;;;23.29;67.89
45285;BME280;31026;43.780;25.948;2022-08-23T13:12:16;100199.91;;;23.29;68.02
45285;BME280;31026;43.780;25.948;2022-08-23T13:14:46;100201.88;;;23.35;68.01
45285;BME280;31026;43.780;25.948;2022-08-23T13:17:19;100192.78;;;23.59;67.88
45285;BME280;31026;43.780;25.948;2022-08-23T13:19:48;100196.81;;;23.40;68.03